Time;durP1;ratioP1;P1;durP2;ratioP2;P2;SDS_P1;SDS_P2;PMS_P1;PMS_P2;Temp;Humidity;BMP_temperature;BMP_pressure;BME280_temperature;BME280_humidity;BME280_pressure;Samples;Min_cycle;Max_cycle;Signal;HPM_P1;HPM_P2
2021/08/25 00:01:33;;;;;;;;;;;;;;;6.11;90.77;100283.88;4957812;28;19918;-90
2021/08/25 00:03:58;;;;;;;;;;;;;;;6.15;90.80;100285.56;4975110;28;19922;-90
2021/08/25 00:06:23;;;;;;;;;;;;;;;6.16;90.29;100287.31;4957983;28;19918;-90
2021/08/25 00:08:49;;;;;;;;;;;;;;;6.21;90.14;100290.72;4975220;28;19922;-90
2021/08/25 00:11:14;;;;;;;;;;;;;;;6.17;90.80;100286.41;4956825;28;19918;-89
2021/08/25 00:13:42;;;;;;;;;;;;;;;6.14;90.65;100284.72;4957580;28;19918;-90
2021/08/25 00:16:08;;;;;;;;;;;;;;;6.19;90.60;100287.28;4956907;28;19986;-89
2021/08/25 00:18:33;;;;;;;;;;;;;;;6.14;90.28;100284.72;4973719;28;19918;-89
2021/08/25 00:20:59;;;;;;;;;;;;;;;6.08;90.09;100283.91;4956687;28;19929;-90
2021/08/25 00:23:24;;;;;;;;;;;;;;;6.21;89.96;100271.41;4957656;28;19914;-89
2021/08/25 00:25:53;;;;;;;;;;;;;;;6.16;90.06;100266.25;4956639;28;19921;-89
2021/08/25 00:28:18;;;;;;;;;;;;;;;6.13;90.07;100269.81;4956087;28;20423;-89
2021/08/25 00:30:44;;;;;;;;;;;;;;;6.08;90.08;100269.03;4956491;28;19920;-89
2021/08/25 00:33:09;;;;;;;;;;;;;;;6.04;90.36;100266.47;4955929;28;20016;-90
2021/08/25 00:35:34;;;;;;;;;;;;;;;6.03;89.76;100265.59;4956288;28;20392;-90
2021/08/25 00:38:00;;;;;;;;;;;;;;;6.13;90.45;100255.78;4956927;28;19929;-90
2021/08/25 00:40:25;;;;;;;;;;;;;;;6.06;90.08;100257.63;4956961;28;19918;-90
2021/08/25 00:42:50;;;;;;;;;;;;;;;6.15;90.35;100248.72;4972581;28;19925;-88
2021/08/25 03:16:29;;;;;;;;;;;;;;;5.42;88.00;100172.75;5873896;23;19935;-89
2021/08/25 03:18:54;;;;;;;;;;;;;;;5.55;88.16;100174.31;4961518;28;20024;-89
2021/08/25 03:21:19;;;;;;;;;;;;;;;5.54;87.69;100175.19;4964325;28;19973;-89
2021/08/25 03:23:45;;;;;;;;;;;;;;;5.51;88.45;100172.59;4966139;28;19926;-89
2021/08/25 03:26:10;;;;;;;;;;;;;;;5.62;91.94;100170.66;4964755;28;19918;-86
2021/08/25 03:28:35;;;;;;;;;;;;;;;5.69;93.21;100165.31;4964860;28;19918;-88
2021/08/25 03:31:00;;;;;;;;;;;;;;;5.73;93.80;100173.13;4963306;28;20370;-91
2021/08/25 03:33:26;;;;;;;;;;;;;;;5.70;93.58;100170.53;4966216;28;19926;-89
2021/08/25 03:35:51;;;;;;;;;;;;;;;5.62;93.77;100175.94;4964192;28;20632;-91
2021/08/25 03:38:17;;;;;;;;;;;;;;;5.68;93.66;100169.72;4964352;28;20329;-89
2021/08/25 03:40:42;;;;;;;;;;;;;;;5.64;94.81;100171.50;4964095;28;20393;-88
2021/08/25 03:43:07;;;;;;;;;;;;;;;5.56;94.53;100165.50;4964470;28;19956;-90
2021/08/25 03:45:32;;;;;;;;;;;;;;;5.80;97.83;100163.38;4963492;28;19923;-88
2021/08/25 03:48:01;;;;;;;;;;;;;;;5.93;99.95;100159.63;4965630;28;19937;-89
2021/08/25 03:50:26;;;;;;;;;;;;;;;6.09;100.00;100162.00;4964302;28;19962;-90
2021/08/25 03:52:54;;;;;;;;;;;;;;;6.18;100.00;100164.47;4965086;28;19965;-90
2021/08/25 03:55:30;;;;;;;;;;;;;;;6.02;100.00;100158.63;4966461;28;19921;-91
2021/08/25 03:57:55;;;;;;;;;;;;;;;6.35;100.00;100149.22;4964947;28;19926;-90
2021/08/25 04:00:30;;;;;;;;;;;;;;;6.60;100.00;100148.72;4966167;28;19919;-91
2021/08/25 04:02:58;;;;;;;;;;;;;;;6.60;100.00;100151.34;4963956;28;19922;-91
2021/08/25 04:05:23;;;;;;;;;;;;;;;6.83;100.00;100158.78;4965596;28;20001;-90
2021/08/25 04:07:49;;;;;;;;;;;;;;;6.70;100.00;100152.03;4962895;28;20422;-90
2021/08/25 04:10:14;;;;;;;;;;;;;;;6.48;100.00;100164.78;4963865;28;19919;-90
2021/08/25 04:12:39;;;;;;;;;;;;;;;6.40;100.00;100162.31;4964122;28;19941;-91
2021/08/25 04:15:05;;;;;;;;;;;;;;;6.27;100.00;100163.41;4964052;28;20005;-91
2021/08/25 04:17:31;;;;;;;;;;;;;;;6.13;99.65;100155.81;4974502;28;19922;-89
2021/08/25 04:19:56;;;;;;;;;;;;;;;6.19;100.00;100153.06;4954164;29;19922;-91
2021/08/25 04:22:21;;;;;;;;;;;;;;;6.08;99.41;100149.75;4955439;28;20325;-91
2021/08/25 04:24:47;;;;;;;;;;;;;;;5.97;99.02;100150.81;4954037;28;20377;-90
2021/08/25 04:27:12;;;;;;;;;;;;;;;5.95;99.20;100157.84;4953756;29;19926;-88
2021/08/25 04:29:37;;;;;;;;;;;;;;;5.99;99.06;100153.44;4953950;28;20382;-90
2021/08/25 04:32:03;;;;;;;;;;;;;;;5.92;98.41;100157.91;4968461;28;19919;-89
2021/08/25 04:34:30;;;;;;;;;;;;;;;5.89;98.24;100151.81;4954059;28;19922;-90
2021/08/25 04:36:56;;;;;;;;;;;;;;;5.83;98.39;100152.78;4969118;28;19925;-90
2021/08/25 04:39:21;;;;;;;;;;;;;;;5.82;98.05;100154.56;4953622;28;19922;-89
2021/08/25 04:41:46;;;;;;;;;;;;;;;5.69;97.89;100150.41;4953865;29;19923;-89
2021/08/25 04:44:12;;;;;;;;;;;;;;;5.69;97.18;100158.28;4954578;28;20375;-89
2021/08/25 04:46:37;;;;;;;;;;;;;;;5.78;96.93;100154.66;4952283;28;20009;-89
2021/08/25 08:01:09;;;;;;;;;;;;;;;5.40;95.80;100158.78;4982312;28;19932;-85
2021/08/25 08:03:34;;;;;;;;;;;;;;;5.37;96.80;100148.31;4967645;28;19937;-88
2021/08/25 08:06:00;;;;;;;;;;;;;;;5.34;96.16;100145.72;4984631;28;19960;-86
2021/08/25 08:08:25;;;;;;;;;;;;;;;5.37;96.12;100145.69;4983816;28;19926;-87
2021/08/25 08:10:52;;;;;;;;;;;;;;;5.37;96.42;100137.78;4959579;28;20295;-87
2021/08/25 08:13:17;;;;;;;;;;;;;;;5.39;96.80;100138.63;4965942;28;19972;-87
2021/08/25 08:15:44;;;;;;;;;;;;;;;5.42;97.11;100135.94;4966111;28;19929;-87
2021/08/25 08:18:13;;;;;;;;;;;;;;;5.42;97.00;100146.47;4984000;28;19926;-86
2021/08/25 08:20:38;;;;;;;;;;;;;;;5.30;97.17;100134.41;4965914;28;19922;-86
2021/08/25 08:23:04;;;;;;;;;;;;;;;5.41;96.65;100132.47;4966435;28;19933;-87
2021/08/25 08:25:29;;;;;;;;;;;;;;;5.40;96.92;100133.34;4985102;28;19941;-88
2021/08/25 08:27:54;;;;;;;;;;;;;;;5.59;99.16;100133.06;4965286;28;20301;-86
2021/08/25 08:30:20;;;;;;;;;;;;;;;5.50;97.64;100130.56;4966879;28;19929;-88
2021/08/25 08:32:45;;;;;;;;;;;;;;;5.50;96.94;100126.19;4966325;28;20293;-86
2021/08/25 08:35:10;;;;;;;;;;;;;;;5.43;97.00;100129.81;4983850;28;19925;-87
2021/08/25 08:37:35;;;;;;;;;;;;;;;5.44;97.37;100124.53;4984112;28;20293;-87
2021/08/25 08:40:01;;;;;;;;;;;;;;;5.40;97.58;100121.97;4982214;28;20024;-87
2021/08/25 08:42:27;;;;;;;;;;;;;;;5.42;97.06;100131.56;4982847;28;19922;-89
2021/08/25 08:44:53;;;;;;;;;;;;;;;5.44;96.71;100134.16;4964198;28;19925;-89
2021/08/25 08:47:19;;;;;;;;;;;;;;;5.48;97.03;100127.97;4983059;28;19933;-88
2021/08/25 08:49:45;;;;;;;;;;;;;;;5.73;97.38;100135.47;4984298;28;19917;-88
2021/08/25 08:52:10;;;;;;;;;;;;;;;5.67;97.87;100130.31;4983120;28;20000;-86
2021/08/25 08:54:35;;;;;;;;;;;;;;;5.56;97.47;100133.09;4965965;28;20032;-87
2021/08/25 08:57:01;;;;;;;;;;;;;;;5.49;97.91;100132.34;4974972;28;19973;-86
2021/08/25 08:59:26;;;;;;;;;;;;;;;5.58;98.29;100134.78;4956546;28;19922;-87
2021/08/25 09:01:51;;;;;;;;;;;;;;;5.45;97.78;100128.88;4956373;28;20325;-87
2021/08/25 09:04:29;;;;;;;;;;;;;;;5.63;97.50;100125.09;4956437;28;19924;-87
2021/08/25 09:06:55;;;;;;;;;;;;;;;5.63;97.77;100127.72;4972359;28;19922;-89
2021/08/25 09:09:20;;;;;;;;;;;;;;;5.62;97.28;100125.97;4955566;28;20381;-89
2021/08/25 09:11:50;;;;;;;;;;;;;;;5.80;98.19;100126.56;4956262;28;19918;-87
2021/08/25 09:14:15;;;;;;;;;;;;;;;5.69;98.59;100123.25;4954000;28;20421;-88
2021/08/25 09:16:41;;;;;;;;;;;;;;;5.88;99.29;100119.38;4955181;28;19930;-88
2021/08/25 09:19:10;;;;;;;;;;;;;;;5.77;97.95;100123.97;4973393;28;20277;-87
2021/08/25 09:21:35;;;;;;;;;;;;;;;5.70;98.21;100119.72;4956385;28;20273;-88
2021/08/25 09:24:01;;;;;;;;;;;;;;;5.70;98.22;100122.38;4955878;28;19918;-87
2021/08/25 09:26:26;;;;;;;;;;;;;;;6.13;100.00;100119.81;4955257;28;19918;-87
2021/08/25 09:28:52;;;;;;;;;;;;;;;5.76;97.85;100120.50;4951559;28;19918;-87
2021/08/25 09:31:18;;;;;;;;;;;;;;;5.74;98.08;100126.66;4955588;28;20435;-87
2021/08/25 09:33:44;;;;;;;;;;;;;;;5.80;99.37;100122.16;4955300;28;19918;-88
2021/08/25 09:36:11;;;;;;;;;;;;;;;5.81;97.47;100123.91;4955906;28;19925;-88
2021/08/25 09:38:36;;;;;;;;;;;;;;;5.82;99.13;100119.50;4971828;28;19969;-85
2021/08/25 09:41:06;;;;;;;;;;;;;;;5.75;98.02;100125.78;4973290;28;20285;-87
2021/08/25 09:43:35;;;;;;;;;;;;;;;5.86;98.61;100126.44;4971519;28;19922;-86
2021/08/25 09:46:03;;;;;;;;;;;;;;;5.83;97.73;100110.72;4955262;28;19922;-86
2021/08/25 09:48:32;;;;;;;;;;;;;;;5.90;97.87;100107.06;4973158;28;19925;-85
2021/08/25 09:50:58;;;;;;;;;;;;;;;5.86;97.94;100105.41;4973370;28;19964;-86
2021/08/25 09:53:23;;;;;;;;;;;;;;;5.85;97.74;100102.81;4955920;28;20017;-86
2021/08/25 09:55:48;;;;;;;;;;;;;;;5.87;98.70;100106.25;4955028;28;19926;-87
2021/08/25 09:58:14;;;;;;;;;;;;;;;5.96;99.16;100096.47;4971763;28;19922;-87
2021/08/25 10:00:39;;;;;;;;;;;;;;;5.91;98.68;100093.03;4970805;28;19926;-86
2021/08/25 10:03:04;;;;;;;;;;;;;;;6.04;98.79;100098.09;4955670;28;19922;-86
2021/08/25 10:05:29;;;;;;;;;;;;;;;6.00;99.29;100087.63;4973040;28;20031;-86
2021/08/25 10:07:56;;;;;;;;;;;;;;;6.06;99.08;100098.94;4971911;28;19918;-86
2021/08/25 10:10:21;;;;;;;;;;;;;;;6.06;98.56;100085.78;4955725;28;19922;-86
2021/08/25 10:12:51;;;;;;;;;;;;;;;5.95;98.20;100092.09;4971800;28;19973;-87
2021/08/25 10:15:31;;;;;;;;;;;;;;;5.98;99.61;100084.19;4955565;28;19973;-87
2021/08/25 10:17:57;;;;;;;;;;;;;;;5.90;98.49;100093.06;4955398;28;20008;-87
2021/08/25 10:20:33;;;;;;;;;;;;;;;5.95;98.74;100088.56;4972816;28;20030;-87
2021/08/25 10:23:02;;;;;;;;;;;;;;;5.96;99.34;100080.69;4955462;28;19966;-86
2021/08/25 10:25:27;;;;;;;;;;;;;;;5.96;97.72;100074.53;4972782;28;19918;-86
2021/08/25 10:28:03;;;;;;;;;;;;;;;6.04;98.08;100077.06;4971534;28;19990;-87
2021/08/25 10:30:29;;;;;;;;;;;;;;;5.99;98.36;100071.88;4955125;28;19929;-87
2021/08/25 10:32:55;;;;;;;;;;;;;;;5.94;98.74;100071.94;4955289;28;19921;-87
2021/08/25 10:35:26;;;;;;;;;;;;;;;5.88;97.57;100063.31;4972919;28;19914;-87
2021/08/25 10:37:52;;;;;;;;;;;;;;;5.87;97.16;100065.06;4971745;28;19973;-88
2021/08/25 10:40:19;;;;;;;;;;;;;;;5.78;97.57;100067.88;4955345;28;19918;-87
2021/08/25 10:42:44;;;;;;;;;;;;;;;5.83;96.55;100058.97;4971410;28;19922;-87
2021/08/25 10:45:10;;;;;;;;;;;;;;;5.74;96.33;100056.53;4958132;28;20033;-87
2021/08/25 10:47:56;;;;;;;;;;;;;;;5.85;98.44;100058.94;4976178;28;19929;-87
2021/08/25 10:50:21;;;;;;;;;;;;;;;5.80;97.00;100045.03;4958761;28;20328;-86
2021/08/25 10:52:47;;;;;;;;;;;;;;;5.86;96.91;100049.31;4958736;28;19945;-86
2021/08/25 10:55:12;;;;;;;;;;;;;;;5.77;97.26;100045.09;4976052;28;19925;-86
2021/08/25 10:57:42;;;;;;;;;;;;;;;5.75;96.66;100045.13;4957287;28;20020;-86
2021/08/25 11:00:12;;;;;;;;;;;;;;;5.84;96.62;100051.97;4958112;28;20020;-86
2021/08/25 11:02:38;;;;;;;;;;;;;;;5.87;96.04;100041.41;4958307;28;19922;-86
2021/08/25 11:05:03;;;;;;;;;;;;;;;5.72;96.04;100023.28;4958566;28;19969;-87
2021/08/25 11:07:29;;;;;;;;;;;;;;;5.69;96.66;100023.34;4958422;28;19929;-86
2021/08/25 11:09:54;;;;;;;;;;;;;;;5.74;96.97;100013.59;4958598;28;19918;-86
2021/08/25 11:12:22;;;;;;;;;;;;;;;5.74;97.65;100018.84;4975635;28;19933;-86
2021/08/25 11:14:48;;;;;;;;;;;;;;;5.96;97.79;100012.28;4975016;28;19918;-86
2021/08/25 11:17:13;;;;;;;;;;;;;;;5.92;97.41;100013.25;4958221;28;19929;-85
2021/08/25 11:19:42;;;;;;;;;;;;;;;5.85;97.08;100008.97;4975633;28;19922;-87
2021/08/25 11:22:09;;;;;;;;;;;;;;;5.96;98.42;100021.94;4973984;28;19922;-87
2021/08/25 11:24:36;;;;;;;;;;;;;;;5.91;97.16;100008.00;4958129;28;19918;-87
2021/08/25 11:27:02;;;;;;;;;;;;;;;5.87;96.58;100003.69;4975344;28;19922;-87
2021/08/25 11:29:27;;;;;;;;;;;;;;;5.77;96.09;100005.66;4974464;28;19984;-87
2021/08/25 11:31:52;;;;;;;;;;;;;;;5.82;95.90;100006.41;4975450;28;19918;-87
2021/08/25 11:34:19;;;;;;;;;;;;;;;5.74;96.49;100006.56;4975456;28;20054;-87
2021/08/25 11:36:55;;;;;;;;;;;;;;;5.80;97.04;100005.59;4957804;28;19965;-87
2021/08/25 11:39:20;;;;;;;;;;;;;;;5.79;96.80;100006.47;4974812;28;20366;-87
2021/08/25 11:41:53;;;;;;;;;;;;;;;5.74;96.35;100008.34;4957829;28;19918;-86
2021/08/25 11:44:37;;;;;;;;;;;;;;;5.78;96.72;100002.97;4973408;28;19933;-86
2021/08/25 11:47:09;;;;;;;;;;;;;;;5.88;98.98;100002.81;4975042;28;19926;-87
2021/08/25 11:49:35;;;;;;;;;;;;;;;5.94;97.45;99998.28;4975242;28;19926;-88
2021/08/25 11:52:00;;;;;;;;;;;;;;;5.85;96.91;99998.47;4957655;28;20502;-87
2021/08/25 11:54:25;;;;;;;;;;;;;;;5.85;97.77;99997.59;4974863;28;19922;-86
2021/08/25 11:56:51;;;;;;;;;;;;;;;5.77;97.17;100005.66;4974339;28;20424;-87
2021/08/25 11:59:17;;;;;;;;;;;;;;;5.80;96.84;99995.06;4973436;28;19926;-88
2021/08/25 12:01:42;;;;;;;;;;;;;;;5.80;96.85;99995.06;4957502;28;20292;-87
2021/08/25 12:04:07;;;;;;;;;;;;;;;5.95;97.43;99989.50;4956730;28;19918;-89
2021/08/25 12:06:46;;;;;;;;;;;;;;;5.90;97.53;99991.34;4957411;28;19922;-87
2021/08/25 12:09:27;;;;;;;;;;;;;;;5.82;97.48;99980.13;4974153;28;19925;-87
2021/08/25 12:11:53;;;;;;;;;;;;;;;5.95;97.32;99978.09;4974705;28;19918;-88
2021/08/25 12:14:18;;;;;;;;;;;;;;;5.91;97.29;99984.34;4956011;28;19953;-87
2021/08/25 12:17:00;;;;;;;;;;;;;;;5.96;97.32;99986.00;4957280;28;19929;-89
2021/08/25 12:19:25;;;;;;;;;;;;;;;5.87;97.27;99978.28;4957020;28;20301;-89
2021/08/25 12:21:50;;;;;;;;;;;;;;;5.83;96.38;99968.72;4957287;28;19941;-88
2021/08/25 12:24:15;;;;;;;;;;;;;;;5.86;96.22;99968.66;4957000;28;19914;-88
2021/08/25 12:26:52;;;;;;;;;;;;;;;6.03;96.71;99970.09;4956998;28;20377;-88
2021/08/25 12:29:27;;;;;;;;;;;;;;;6.27;98.23;99964.31;4955690;28;19914;-87
2021/08/25 12:31:56;;;;;;;;;;;;;;;6.10;97.14;99962.03;4956440;28;19928;-88
2021/08/25 12:34:21;;;;;;;;;;;;;;;6.15;97.51;99954.91;4956974;28;20437;-87
2021/08/25 12:36:55;;;;;;;;;;;;;;;6.11;98.91;99952.38;4956857;28;20008;-87
2021/08/25 12:39:22;;;;;;;;;;;;;;;6.35;99.34;99954.47;4955951;28;19929;-88
2021/08/25 12:41:48;;;;;;;;;;;;;;;6.36;100.00;99952.69;4974139;28;19918;-88
2021/08/25 12:44:14;;;;;;;;;;;;;;;6.15;97.98;99951.41;4972739;28;20346;-88
2021/08/25 12:46:52;;;;;;;;;;;;;;;6.41;100.00;99949.94;4972673;28;19929;-88
2021/08/25 12:49:18;;;;;;;;;;;;;;;6.49;99.74;99945.38;4956401;28;19918;-87
2021/08/25 12:51:44;;;;;;;;;;;;;;;6.50;99.03;99944.47;4974063;28;20001;-88
2021/08/25 12:54:09;;;;;;;;;;;;;;;6.25;97.91;99942.41;4974093;28;19957;-89
2021/08/25 12:56:34;;;;;;;;;;;;;;;6.21;97.83;99938.13;4973922;28;19922;-88
2021/08/25 12:58:59;;;;;;;;;;;;;;;6.05;97.18;99934.97;4955012;28;19922;-88
2021/08/25 13:01:25;;;;;;;;;;;;;;;6.26;99.75;99938.88;4956452;28;19922;-88
2021/08/25 13:03:50;;;;;;;;;;;;;;;6.27;98.77;99940.63;4973602;28;20298;-88
2021/08/25 13:06:15;;;;;;;;;;;;;;;6.20;97.98;99941.66;4956514;28;19918;-90
2021/08/25 13:08:41;;;;;;;;;;;;;;;6.19;97.30;99929.41;4973680;28;19918;-88
2021/08/25 13:11:06;;;;;;;;;;;;;;;6.07;97.18;99929.66;4956404;28;19915;-88
2021/08/25 13:13:31;;;;;;;;;;;;;;;5.98;96.70;99921.09;4954942;28;20178;-89
2021/08/25 13:15:57;;;;;;;;;;;;;;;6.06;97.41;99922.66;4956324;28;19918;-87
2021/08/25 13:18:25;;;;;;;;;;;;;;;6.03;96.98;99923.63;4956333;28;19925;-88
2021/08/25 13:20:50;;;;;;;;;;;;;;;6.10;97.01;99921.72;4956187;28;19984;-88
2021/08/25 13:23:16;;;;;;;;;;;;;;;6.09;97.61;99919.97;4956060;28;19961;-88
2021/08/25 13:25:41;;;;;;;;;;;;;;;6.15;97.25;99917.22;4955853;28;19918;-87
2021/08/25 13:28:07;;;;;;;;;;;;;;;6.13;97.38;99913.75;4954637;28;20214;-87
2021/08/25 13:30:32;;;;;;;;;;;;;;;6.07;96.17;99913.88;4955956;28;19918;-87
2021/08/25 13:32:58;;;;;;;;;;;;;;;6.08;96.57;99902.44;4973463;28;19987;-88
2021/08/25 13:35:23;;;;;;;;;;;;;;;6.07;97.12;99908.63;4973270;28;19917;-87
2021/08/25 13:37:48;;;;;;;;;;;;;;;6.00;96.88;99908.75;4973102;28;19928;-88
2021/08/25 13:40:13;;;;;;;;;;;;;;;6.20;98.10;99902.16;4973063;28;20423;-87
2021/08/25 13:42:39;;;;;;;;;;;;;;;6.04;97.12;99898.16;4954416;28;19953;-88
2021/08/25 13:45:04;;;;;;;;;;;;;;;6.04;97.17;99898.16;4973108;28;20266;-87
2021/08/25 13:47:30;;;;;;;;;;;;;;;6.17;97.62;99902.25;4955733;28;19918;-87
2021/08/25 13:49:55;;;;;;;;;;;;;;;6.15;97.00;99886.50;4973172;28;20392;-88
2021/08/25 13:52:20;;;;;;;;;;;;;;;5.94;97.22;99882.56;4955532;28;19926;-87
2021/08/25 13:54:45;;;;;;;;;;;;;;;6.01;96.87;99888.56;4955754;28;19925;-88
2021/08/25 13:57:11;;;;;;;;;;;;;;;5.99;96.76;99882.50;4972792;28;20309;-87
2021/08/25 13:59:41;;;;;;;;;;;;;;;5.95;96.70;99876.41;4970067;28;19926;-87
2021/08/25 14:02:09;;;;;;;;;;;;;;;5.94;96.37;99879.06;4969851;28;20005;-87
2021/08/25 14:04:35;;;;;;;;;;;;;;;5.98;96.19;99868.47;4972923;28;20258;-87
2021/08/25 14:07:00;;;;;;;;;;;;;;;5.95;96.29;99865.88;4955483;28;19922;-87
2021/08/25 14:09:25;;;;;;;;;;;;;;;5.93;96.06;99865.03;4955631;28;19987;-88
2021/08/25 14:11:50;;;;;;;;;;;;;;;6.04;96.66;99866.59;4955588;28;19925;-88
2021/08/25 14:14:17;;;;;;;;;;;;;;;6.02;96.87;99861.38;4954493;28;19926;-87
2021/08/25 14:16:42;;;;;;;;;;;;;;;6.06;96.46;99855.13;4973132;28;19929;-88
2021/08/25 14:19:08;;;;;;;;;;;;;;;5.98;96.17;99855.31;4975016;28;19918;-87
2021/08/25 14:21:33;;;;;;;;;;;;;;;6.02;96.43;99842.09;4959444;28;19922;-87
2021/08/25 14:23:58;;;;;;;;;;;;;;;5.96;96.78;99838.69;4976946;28;19926;-88
2021/08/25 14:26:24;;;;;;;;;;;;;;;5.98;96.94;99842.19;4958641;28;19917;-87
2021/08/25 14:28:49;;;;;;;;;;;;;;;5.94;96.89;99839.63;4975678;28;19965;-87
2021/08/25 14:31:15;;;;;;;;;;;;;;;6.07;96.14;99845.50;4976110;28;20739;-87
2021/08/25 14:33:40;;;;;;;;;;;;;;;6.00;95.77;99837.75;4959290;28;19922;-88
2021/08/25 14:36:05;;;;;;;;;;;;;;;5.91;96.07;99832.66;4976651;28;20321;-87
2021/08/25 14:38:31;;;;;;;;;;;;;;;5.92;96.30;99833.50;4958878;28;19985;-88
2021/08/25 14:40:56;;;;;;;;;;;;;;;6.00;96.08;99837.75;4976080;28;19924;-88
2021/08/25 14:43:22;;;;;;;;;;;;;;;5.86;96.38;99825.78;4957699;28;19922;-87
2021/08/25 14:45:47;;;;;;;;;;;;;;;5.87;96.82;99824.84;4958497;28;19957;-88
2021/08/25 14:48:12;;;;;;;;;;;;;;;6.00;96.97;99821.94;4958830;28;20036;-88
2021/08/25 14:50:38;;;;;;;;;;;;;;;5.95;96.62;99818.53;4958591;28;19925;-88
2021/08/25 14:53:04;;;;;;;;;;;;;;;5.96;96.42;99816.75;4976185;28;20381;-88
2021/08/25 14:55:30;;;;;;;;;;;;;;;5.97;96.60;99818.53;4958803;28;19925;-88
2021/08/25 14:57:56;;;;;;;;;;;;;;;6.00;96.57;99813.22;4957337;28;19922;-88
2021/08/25 15:00:22;;;;;;;;;;;;;;;6.17;97.75;99810.16;4954424;28;19923;-88
2021/08/25 15:02:47;;;;;;;;;;;;;;;6.09;96.16;99806.84;4955483;29;19918;-89
2021/08/25 15:05:12;;;;;;;;;;;;;;;6.00;96.38;99806.16;4954966;29;19968;-88
2021/08/25 15:07:38;;;;;;;;;;;;;;;5.99;96.64;99800.94;4954819;29;20001;-88
2021/08/25 15:10:03;;;;;;;;;;;;;;;6.00;96.07;99806.16;4955282;29;19969;-88
2021/08/25 15:12:29;;;;;;;;;;;;;;;5.92;96.18;99805.47;4953896;29;20382;-87
2021/08/25 15:14:54;;;;;;;;;;;;;;;5.98;95.87;99805.34;4950200;29;19919;-87
2021/08/25 15:17:19;;;;;;;;;;;;;;;5.93;95.93;99807.16;4955110;29;19918;-88
2021/08/25 15:19:44;;;;;;;;;;;;;;;5.91;95.88;99798.47;4950703;29;19930;-88
2021/08/25 15:22:10;;;;;;;;;;;;;;;5.89;95.99;99809.91;4950757;29;20422;-87
2021/08/25 15:24:36;;;;;;;;;;;;;;;6.05;96.66;99797.28;4955008;29;20005;-88
2021/08/25 15:27:02;;;;;;;;;;;;;;;5.99;97.25;99796.53;4954945;29;20017;-88
2021/08/25 15:29:28;;;;;;;;;;;;;;;6.00;96.84;99798.28;4953265;28;19954;-88
2021/08/25 15:31:53;;;;;;;;;;;;;;;5.92;96.60;99791.41;4953506;29;19981;-87
2021/08/25 15:34:22;;;;;;;;;;;;;;;5.93;96.80;99791.38;4955902;29;19986;-88
2021/08/25 15:36:48;;;;;;;;;;;;;;;5.91;96.78;99787.09;4954929;29;20016;-88
2021/08/25 15:39:14;;;;;;;;;;;;;;;5.95;96.40;99789.59;4954304;29;19918;-87
2021/08/25 15:41:39;;;;;;;;;;;;;;;6.07;96.68;99790.25;4950279;29;19926;-88
2021/08/25 15:44:05;;;;;;;;;;;;;;;6.02;96.32;99790.34;4953653;29;19925;-87
2021/08/25 15:46:31;;;;;;;;;;;;;;;5.97;96.77;99784.34;4955918;28;19919;-86
2021/08/25 15:48:56;;;;;;;;;;;;;;;5.91;96.41;99782.69;4954741;29;19944;-86
2021/08/25 15:51:21;;;;;;;;;;;;;;;5.90;96.26;99777.44;4954541;29;19929;-87
2021/08/25 15:53:47;;;;;;;;;;;;;;;5.99;96.83;99778.13;4955507;29;20449;-87
2021/08/25 15:56:12;;;;;;;;;;;;;;;5.91;96.75;99772.16;4953441;29;19926;-87
2021/08/25 15:58:37;;;;;;;;;;;;;;;5.95;96.30;99772.94;4956198;28;19928;-87
2021/08/25 16:01:03;;;;;;;;;;;;;;;5.93;96.04;99769.50;4974279;28;20378;-87
2021/08/25 16:03:32;;;;;;;;;;;;;;;6.00;95.83;99761.47;4957656;28;19945;-87
2021/08/25 16:05:57;;;;;;;;;;;;;;;5.94;96.09;99760.72;4957806;28;19922;-87
2021/08/25 16:08:22;;;;;;;;;;;;;;;5.99;96.04;99761.50;4972837;28;19918;-88
2021/08/25 16:10:48;;;;;;;;;;;;;;;5.96;96.19;99754.53;4974760;28;19926;-87
2021/08/25 16:13:13;;;;;;;;;;;;;;;5.88;95.73;99759.09;4956183;28;20008;-87
2021/08/25 16:15:38;;;;;;;;;;;;;;;5.83;96.08;99753.94;4957465;28;19926;-86
2021/08/25 16:18:04;;;;;;;;;;;;;;;5.90;95.58;99753.78;4957307;28;20067;-87
2021/08/25 16:20:30;;;;;;;;;;;;;;;5.88;95.92;99756.44;4974768;28;19992;-86
2021/08/25 16:22:55;;;;;;;;;;;;;;;5.94;96.78;99750.19;4973067;28;19922;-86
2021/08/25 16:25:20;;;;;;;;;;;;;;;5.89;96.15;99747.66;4957002;28;19950;-88
2021/08/25 16:27:46;;;;;;;;;;;;;;;5.88;96.25;99750.34;4973389;28;19976;-86
2021/08/25 16:30:11;;;;;;;;;;;;;;;5.90;96.03;99745.91;4956752;28;19977;-87
2021/08/25 16:32:37;;;;;;;;;;;;;;;5.88;95.80;99743.31;4957043;28;19922;-87
2021/08/25 16:35:02;;;;;;;;;;;;;;;5.80;96.59;99738.22;4956772;28;19922;-86
2021/08/25 16:37:28;;;;;;;;;;;;;;;5.85;96.08;99735.47;4972319;28;19929;-86
2021/08/25 16:39:53;;;;;;;;;;;;;;;5.89;95.95;99731.91;4973992;28;19925;-88
2021/08/25 16:42:19;;;;;;;;;;;;;;;5.86;95.86;99731.13;4974001;28;19922;-87
2021/08/25 16:44:45;;;;;;;;;;;;;;;5.85;96.53;99727.59;4955047;28;19925;-87
2021/08/25 16:47:10;;;;;;;;;;;;;;;5.79;95.95;99723.38;4956775;28;19922;-87
2021/08/25 16:49:36;;;;;;;;;;;;;;;5.84;95.31;99715.38;4973903;28;19958;-87
2021/08/25 16:52:04;;;;;;;;;;;;;;;5.82;95.64;99709.25;4956768;28;19929;-88
2021/08/25 16:54:31;;;;;;;;;;;;;;;5.78;95.80;99711.09;4956612;28;19930;-87
2021/08/25 16:56:59;;;;;;;;;;;;;;;5.80;95.43;99711.94;4974138;28;19918;-90
2021/08/25 16:59:25;;;;;;;;;;;;;;;5.80;95.83;99709.31;4955929;28;19933;-89
2021/08/25 17:01:52;;;;;;;;;;;;;;;5.84;96.04;99712.75;4956224;28;19926;-89
2021/08/25 17:04:17;;;;;;;;;;;;;;;5.85;95.41;99713.59;4974199;28;19914;-88
2021/08/25 17:06:42;;;;;;;;;;;;;;;5.79;95.60;99704.06;4956388;28;19973;-89
2021/08/25 17:09:08;;;;;;;;;;;;;;;5.81;95.66;99704.94;4973664;28;19922;-89
2021/08/25 17:11:33;;;;;;;;;;;;;;;5.81;95.51;99697.03;4956499;28;19980;-88
2021/08/25 17:13:58;;;;;;;;;;;;;;;5.82;95.78;99704.00;4955335;28;19925;-89
2021/08/25 17:16:24;;;;;;;;;;;;;;;5.82;95.15;99699.63;4956434;28;19992;-89
2021/08/25 17:18:49;;;;;;;;;;;;;;;5.85;95.17;99703.94;4956250;28;19972;-88
2021/08/25 17:21:16;;;;;;;;;;;;;;;5.82;95.69;99696.13;4972869;28;21588;-90
2021/08/25 17:23:41;;;;;;;;;;;;;;;5.78;96.10;99707.63;4973650;28;19925;-91
2021/08/25 17:26:07;;;;;;;;;;;;;;;5.90;95.46;99704.66;4956264;28;20005;-89
2021/08/25 17:28:32;;;;;;;;;;;;;;;5.88;95.33;99698.59;4954234;28;19918;-89
2021/08/25 17:30:58;;;;;;;;;;;;;;;5.81;95.75;99704.94;4956296;28;19930;-90
2021/08/25 17:33:24;;;;;;;;;;;;;;;5.89;95.36;99702.97;4956229;28;19930;-89
2021/08/25 17:35:50;;;;;;;;;;;;;;;5.85;95.45;99701.31;4956037;28;19918;-88
2021/08/25 17:38:15;;;;;;;;;;;;;;;5.83;95.67;99705.75;4956229;28;20463;-89
2021/08/25 17:40:44;;;;;;;;;;;;;;;5.86;95.88;99700.41;4956320;28;19935;-89
2021/08/25 17:43:10;;;;;;;;;;;;;;;5.78;96.21;99708.47;4972252;28;19921;-89
2021/08/25 17:45:35;;;;;;;;;;;;;;;5.84;96.19;99710.09;4956128;28;19922;-91
2021/08/25 17:48:04;;;;;;;;;;;;;;;5.85;96.33;99708.34;4956312;28;19926;-91
2021/08/25 17:50:29;;;;;;;;;;;;;;;5.86;96.54;99716.19;4956070;28;19922;-89
2021/08/25 17:52:57;;;;;;;;;;;;;;;5.89;96.74;99708.22;4955377;28;19926;-88
2021/08/25 17:55:23;;;;;;;;;;;;;;;5.85;96.93;99717.06;4972646;28;20329;-89
2021/08/25 17:57:48;;;;;;;;;;;;;;;5.83;97.50;99716.25;4972015;28;20138;-90
2021/08/25 18:00:13;;;;;;;;;;;;;;;5.86;97.80;99716.19;4955772;28;19922;-89
2021/08/25 18:02:41;;;;;;;;;;;;;;;5.91;98.12;99714.31;4955824;28;20603;-88
2021/08/25 18:05:07;;;;;;;;;;;;;;;5.92;97.73;99707.25;4955552;28;20695;-92
2021/08/25 18:07:32;;;;;;;;;;;;;;;5.91;98.28;99708.19;4955607;28;20057;-91
2021/08/25 18:09:58;;;;;;;;;;;;;;;5.90;98.22;99719.59;4956228;28;19922;-89
2021/08/25 18:12:23;;;;;;;;;;;;;;;5.92;98.12;99705.53;4956252;28;19924;-90
2021/08/25 18:14:53;;;;;;;;;;;;;;;5.99;98.00;99711.50;4954448;28;20053;-90
2021/08/25 18:17:19;;;;;;;;;;;;;;;5.92;98.01;99710.78;4973350;28;19930;-90
2021/08/25 18:19:44;;;;;;;;;;;;;;;5.90;98.43;99709.94;4955800;28;19925;-91
2021/08/25 18:22:09;;;;;;;;;;;;;;;5.95;98.11;99700.19;4955305;28;20366;-89
2021/08/25 18:24:35;;;;;;;;;;;;;;;5.92;97.99;99712.53;4955827;28;19918;-90
2021/08/25 18:27:00;;;;;;;;;;;;;;;5.93;97.90;99709.84;4955825;28;19925;-92
2021/08/25 18:29:25;;;;;;;;;;;;;;;5.97;97.56;99710.69;4955989;28;19925;-90
2021/08/25 18:31:53;;;;;;;;;;;;;;;5.95;97.78;99715.09;4956384;28;20005;-90